Time;durP1;ratioP1;P1;durP2;ratioP2;P2;SDS_P1;SDS_P2;PMS_P1;PMS_P2;Temp;Humidity;BMP_temperature;BMP_pressure;BME280_temperature;BME280_humidity;BME280_pressure;Samples;Min_cycle;Max_cycle;Signal;HPM_P1;HPM_P2
2022/03/03 00:02:23;;;;;;;;;;;22.10;41.20;;;;;;5075135;28;19925;-46
2022/03/03 00:04:50;;;;;;;;;;;22.10;41.30;;;;;;5076187;28;20012;-48
2022/03/03 00:07:17;;;;;;;;;;;22.10;41.30;;;;;;5076061;28;19970;-43
2022/03/03 00:09:44;;;;;;;;;;;22.10;41.30;;;;;;5075185;28;19951;-49
2022/03/03 00:12:11;;;;;;;;;;;22.10;41.30;;;;;;5074845;28;19951;-44
2022/03/03 00:14:38;;;;;;;;;;;22.10;41.30;;;;;;5075732;28;19964;-50
2022/03/03 00:17:05;;;;;;;;;;;22.10;41.30;;;;;;5075196;28;19985;-46
2022/03/03 00:19:32;;;;;;;;;;;22.10;41.30;;;;;;5075427;28;19970;-44
2022/03/03 00:21:59;;;;;;;;;;;22.10;41.30;;;;;;5075434;28;19928;-48
2022/03/03 00:24:26;;;;;;;;;;;22.10;41.30;;;;;;5075499;28;19925;-47
2022/03/03 00:26:53;;;;;;;;;;;22.10;41.30;;;;;;5074629;28;20424;-49
2022/03/03 00:29:20;;;;;;;;;;;22.10;41.30;;;;;;5075761;28;19924;-43
2022/03/03 00:31:47;;;;;;;;;;;22.10;41.30;;;;;;5074517;28;19977;-47
2022/03/03 00:34:14;;;;;;;;;;;22.10;41.40;;;;;;5075334;28;19928;-42
2022/03/03 00:36:42;;;;;;;;;;;22.10;41.30;;;;;;5075580;28;19925;-44
2022/03/03 00:39:09;;;;;;;;;;;22.10;41.30;;;;;;5075553;28;20109;-45
2022/03/03 00:41:37;;;;;;;;;;;22.10;41.30;;;;;;5074633;28;19928;-47
2022/03/03 00:44:05;;;;;;;;;;;22.00;41.30;;;;;;5075495;28;19964;-43
2022/03/03 00:46:34;;;;;;;;;;;22.00;41.30;;;;;;5074549;28;19947;-46
2022/03/03 00:49:01;;;;;;;;;;;22.00;41.30;;;;;;5075293;28;19928;-48
2022/03/03 00:51:28;;;;;;;;;;;22.00;41.30;;;;;;5074811;28;19928;-45
2022/03/03 00:53:55;;;;;;;;;;;22.00;41.30;;;;;;5075235;28;20019;-46
2022/03/03 00:56:22;;;;;;;;;;;22.00;41.30;;;;;;5074369;28;19972;-46
2022/03/03 00:58:49;;;;;;;;;;;22.00;41.40;;;;;;5074822;28;20461;-45
2022/03/03 01:01:16;;;;;;;;;;;22.00;41.40;;;;;;5075121;28;20341;-44
2022/03/03 01:03:44;;;;;;;;;;;22.00;41.30;;;;;;5073946;28;20015;-45
2022/03/03 01:06:11;;;;;;;;;;;22.00;41.40;;;;;;5074713;28;19975;-46
2022/03/03 01:08:38;;;;;;;;;;;22.00;41.30;;;;;;5074889;28;20323;-47
2022/03/03 01:11:06;;;;;;;;;;;22.00;41.40;;;;;;5074022;28;19932;-45
2022/03/03 01:13:34;;;;;;;;;;;22.00;41.40;;;;;;5074517;28;20372;-45
2022/03/03 01:16:01;;;;;;;;;;;22.00;41.40;;;;;;5074498;28;19928;-45
2022/03/03 01:18:28;;;;;;;;;;;22.00;41.40;;;;;;5073966;28;20007;-48
2022/03/03 01:20:57;;;;;;;;;;;22.00;41.40;;;;;;5073217;28;19924;-45
2022/03/03 01:23:24;;;;;;;;;;;22.00;41.40;;;;;;5074616;28;19993;-49
2022/03/03 01:25:51;;;;;;;;;;;21.90;41.30;;;;;;5074591;28;19925;-46
2022/03/03 01:28:18;;;;;;;;;;;22.00;41.40;;;;;;5073732;28;19924;-43
2022/03/03 01:30:45;;;;;;;;;;;22.00;41.40;;;;;;5074470;28;20038;-43
2022/03/03 01:33:12;;;;;;;;;;;22.00;41.40;;;;;;5073405;28;19938;-46
2022/03/03 01:35:40;;;;;;;;;;;22.00;41.40;;;;;;5074122;28;20384;-44
2022/03/03 01:38:07;;;;;;;;;;;22.00;41.40;;;;;;5074045;28;19924;-43
2022/03/03 01:40:34;;;;;;;;;;;21.90;41.30;;;;;;5074207;28;19935;-50
2022/03/03 01:43:01;;;;;;;;;;;22.00;41.40;;;;;;5073276;28;19974;-44
2022/03/03 01:45:28;;;;;;;;;;;22.00;42.00;;;;;;5074219;28;19931;-45
2022/03/03 01:47:55;;;;;;;;;;;22.00;41.40;;;;;;5073279;28;19975;-45
2022/03/03 01:50:22;;;;;;;;;;;21.90;41.30;;;;;;5073829;28;19970;-46
2022/03/03 01:52:49;;;;;;;;;;;21.90;41.30;;;;;;5073597;28;19924;-46
2022/03/03 01:55:17;;;;;;;;;;;21.90;41.30;;;;;;5074113;28;19970;-46
2022/03/03 01:57:46;;;;;;;;;;;21.90;41.30;;;;;;5073344;28;19975;-48
2022/03/03 02:00:13;;;;;;;;;;;21.90;41.30;;;;;;5074026;28;19924;-45
2022/03/03 02:02:40;;;;;;;;;;;21.90;42.00;;;;;;5073137;28;19970;-47
2022/03/03 02:05:08;;;;;;;;;;;21.90;41.40;;;;;;5073683;28;19924;-46
2022/03/03 02:07:35;;;;;;;;;;;21.90;41.30;;;;;;5073523;28;20380;-46
2022/03/03 02:10:03;;;;;;;;;;;21.90;41.30;;;;;;5073799;28;19932;-45
2022/03/03 02:12:30;;;;;;;;;;;21.90;41.30;;;;;;5072854;28;20434;-46
2022/03/03 02:14:58;;;;;;;;;;;21.90;41.30;;;;;;5073890;28;19925;-43
2022/03/03 02:17:25;;;;;;;;;;;21.90;41.30;;;;;;5072694;28;20384;-45
2022/03/03 02:19:52;;;;;;;;;;;21.90;41.30;;;;;;5073766;28;19971;-45
2022/03/03 02:22:19;;;;;;;;;;;21.90;41.30;;;;;;5073640;28;20273;-46
2022/03/03 02:24:46;;;;;;;;;;;21.90;41.30;;;;;;5073786;28;20026;-46
2022/03/03 02:27:13;;;;;;;;;;;21.90;41.30;;;;;;5073280;28;19928;-48
2022/03/03 02:29:40;;;;;;;;;;;21.90;41.30;;;;;;5073709;28;19925;-44
2022/03/03 02:32:08;;;;;;;;;;;21.80;41.30;;;;;;5073182;28;20376;-44
2022/03/03 02:34:35;;;;;;;;;;;21.80;41.30;;;;;;5072629;28;19979;-45
2022/03/03 02:37:02;;;;;;;;;;;21.90;41.30;;;;;;5073644;28;19924;-48
2022/03/03 02:39:29;;;;;;;;;;;21.80;41.30;;;;;;5073360;28;19924;-45
2022/03/03 02:41:56;;;;;;;;;;;21.90;41.30;;;;;;5073121;28;20287;-44
2022/03/03 02:44:23;;;;;;;;;;;21.90;41.30;;;;;;5073331;28;19928;-46
2022/03/03 02:46:50;;;;;;;;;;;21.80;41.30;;;;;;5073573;28;19932;-44
2022/03/03 02:49:17;;;;;;;;;;;21.80;41.30;;;;;;5072354;28;19925;-50
2022/03/03 02:51:44;;;;;;;;;;;21.80;41.20;;;;;;5073534;28;20398;-49
2022/03/03 02:54:11;;;;;;;;;;;21.80;41.20;;;;;;5073165;28;19951;-48
2022/03/03 02:57:53;;;;;;;;;;;21.80;41.30;;;;;;5073133;28;19974;-45
2022/03/03 02:59:25;;;;;;;;;;;21.80;41.30;;;;;;5072325;28;19932;-44
2022/03/03 03:01:52;;;;;;;;;;;21.80;41.30;;;;;;5073401;28;20272;-47
2022/03/03 03:04:19;;;;;;;;;;;21.80;41.30;;;;;;5072555;28;20334;-48
2022/03/03 03:06:46;;;;;;;;;;;21.80;41.30;;;;;;5073072;28;19925;-48
2022/03/03 03:09:13;;;;;;;;;;;21.80;41.30;;;;;;5073240;28;19948;-48
2022/03/03 03:11:40;;;;;;;;;;;21.80;41.30;;;;;;5072881;28;19924;-46
2022/03/03 03:14:07;;;;;;;;;;;21.80;41.30;;;;;;5072539;28;19925;-49
2022/03/03 03:16:34;;;;;;;;;;;21.80;41.30;;;;;;5073241;28;19932;-46
2022/03/03 03:19:01;;;;;;;;;;;21.80;41.30;;;;;;5072301;28;19930;-45
2022/03/03 03:21:28;;;;;;;;;;;21.80;41.30;;;;;;5072792;28;20442;-43
2022/03/03 03:23:55;;;;;;;;;;;21.80;41.30;;;;;;5072915;28;19928;-45
2022/03/03 03:26:22;;;;;;;;;;;21.80;41.30;;;;;;5072888;28;19928;-44
2022/03/03 03:28:49;;;;;;;;;;;21.80;41.30;;;;;;5072056;28;19928;-46
2022/03/03 03:31:16;;;;;;;;;;;21.80;41.30;;;;;;5073149;28;19974;-46
2022/03/03 03:33:43;;;;;;;;;;;21.80;41.30;;;;;;5071994;28;19931;-45
2022/03/03 03:36:10;;;;;;;;;;;21.80;41.30;;;;;;5072743;28;20433;-44
2022/03/03 03:38:37;;;;;;;;;;;21.70;41.20;;;;;;5072790;28;19928;-44
2022/03/03 03:41:04;;;;;;;;;;;21.80;41.30;;;;;;5072636;28;19925;-46
2022/03/03 03:43:31;;;;;;;;;;;21.70;41.30;;;;;;5071951;28;19925;-46
2022/03/03 03:45:58;;;;;;;;;;;21.70;41.20;;;;;;5076429;28;19924;-49
2022/03/03 03:48:25;;;;;;;;;;;21.70;41.20;;;;;;5076361;28;20387;-46
2022/03/03 03:50:52;;;;;;;;;;;21.70;41.20;;;;;;5076078;28;20384;-43
2022/03/03 03:53:19;;;;;;;;;;;21.70;41.20;;;;;;5076440;28;19978;-43
2022/03/03 03:55:46;;;;;;;;;;;21.70;41.30;;;;;;5076357;28;19990;-45
2022/03/03 03:58:13;;;;;;;;;;;21.70;41.20;;;;;;5075260;28;20380;-46
2022/03/03 04:00:40;;;;;;;;;;;21.70;41.20;;;;;;5075973;28;19924;-43
2022/03/03 04:03:07;;;;;;;;;;;21.70;41.30;;;;;;5075925;28;19939;-45
2022/03/03 04:05:35;;;;;;;;;;;21.70;41.30;;;;;;5075421;28;19934;-46
2022/03/03 04:08:02;;;;;;;;;;;21.70;41.30;;;;;;5076644;28;20033;-43
2022/03/03 04:10:29;;;;;;;;;;;21.70;41.20;;;;;;5075678;28;19928;-45
2022/03/03 04:12:56;;;;;;;;;;;21.70;41.20;;;;;;5075996;28;19924;-43
2022/03/03 04:15:23;;;;;;;;;;;21.70;41.30;;;;;;5075678;28;19925;-43
2022/03/03 04:17:50;;;;;;;;;;;21.70;41.20;;;;;;5075983;28;20280;-46
2022/03/03 04:20:18;;;;;;;;;;;21.70;41.20;;;;;;5074644;28;19930;-45
2022/03/03 04:22:45;;;;;;;;;;;21.70;41.20;;;;;;5075891;28;19928;-45
2022/03/03 04:25:12;;;;;;;;;;;21.70;41.20;;;;;;5075866;28;19928;-46
2022/03/03 04:27:40;;;;;;;;;;;21.70;41.30;;;;;;5075831;28;19928;-44
2022/03/03 04:30:09;;;;;;;;;;;21.70;41.30;;;;;;5074624;28;19942;-45
2022/03/03 04:32:37;;;;;;;;;;;21.70;41.30;;;;;;5075723;28;19924;-46
2022/03/03 04:35:04;;;;;;;;;;;21.70;41.20;;;;;;5074851;28;19978;-48
2022/03/03 04:37:32;;;;;;;;;;;21.70;41.20;;;;;;5075631;28;20361;-44
2022/03/03 04:39:59;;;;;;;;;;;21.70;41.20;;;;;;5075114;28;20407;-48
2022/03/03 04:42:26;;;;;;;;;;;21.60;41.10;;;;;;5076006;28;19925;-45
2022/03/03 04:44:53;;;;;;;;;;;21.70;41.20;;;;;;5074683;28;19970;-44
2022/03/03 04:47:19;;;;;;;;;;;21.60;41.20;;;;;;5075436;28;19925;-43
2022/03/03 04:49:46;;;;;;;;;;;21.60;41.20;;;;;;5074222;28;19960;-46
2022/03/03 04:52:13;;;;;;;;;;;21.60;41.10;;;;;;5075170;28;19929;-44
2022/03/03 04:54:40;;;;;;;;;;;21.60;41.20;;;;;;5075168;28;19928;-45
2022/03/03 04:57:07;;;;;;;;;;;21.60;41.20;;;;;;5075215;28;19928;-47
2022/03/03 04:59:34;;;;;;;;;;;21.60;41.20;;;;;;5074103;28;19924;-46
2022/03/03 05:02:01;;;;;;;;;;;21.60;41.20;;;;;;5075125;28;19974;-46
2022/03/03 05:04:28;;;;;;;;;;;21.60;41.20;;;;;;5070659;28;19948;-46
2022/03/03 05:06:55;;;;;;;;;;;21.60;41.20;;;;;;5055057;28;19929;-44
2022/03/03 05:09:22;;;;;;;;;;;21.60;41.10;;;;;;5054592;28;20023;-45
2022/03/03 05:11:49;;;;;;;;;;;21.60;41.10;;;;;;5054585;28;19925;-45
2022/03/03 05:14:16;;;;;;;;;;;21.60;41.10;;;;;;5059228;28;19924;-49
2022/03/03 05:16:43;;;;;;;;;;;21.60;41.10;;;;;;5074797;28;19924;-45
2022/03/03 05:19:11;;;;;;;;;;;21.60;41.10;;;;;;5074029;28;19924;-50
2022/03/03 05:21:38;;;;;;;;;;;21.60;41.10;;;;;;5074382;28;19951;-45
2022/03/03 05:24:05;;;;;;;;;;;21.60;41.20;;;;;;5074681;28;19928;-43
2022/03/03 05:26:32;;;;;;;;;;;21.60;41.20;;;;;;5074656;28;19993;-45
2022/03/03 05:28:59;;;;;;;;;;;21.60;41.10;;;;;;5073755;28;20338;-42
2022/03/03 05:31:26;;;;;;;;;;;21.60;41.10;;;;;;5074520;28;19962;-45
2022/03/03 05:33:53;;;;;;;;;;;21.60;41.10;;;;;;5074753;28;19931;-46
2022/03/03 05:36:23;;;;;;;;;;;21.60;41.10;;;;;;5073333;28;19925;-43
2022/03/03 05:38:52;;;;;;;;;;;21.60;41.10;;;;;;5056990;28;19924;-43
2022/03/03 05:41:19;;;;;;;;;;;21.60;41.10;;;;;;5073906;28;19924;-45
2022/03/03 05:43:46;;;;;;;;;;;21.60;41.10;;;;;;5074001;28;19928;-46
2022/03/03 05:46:15;;;;;;;;;;;21.60;41.10;;;;;;5073230;28;19924;-47
2022/03/03 05:48:42;;;;;;;;;;;21.60;41.10;;;;;;5073830;28;19925;-45
2022/03/03 05:51:10;;;;;;;;;;;21.60;41.10;;;;;;5072846;28;20403;-43
2022/03/03 05:53:37;;;;;;;;;;;21.50;41.00;;;;;;5074189;28;20296;-42
2022/03/03 05:56:07;;;;;;;;;;;21.60;41.10;;;;;;5073857;28;19925;-44
2022/03/03 05:58:39;;;;;;;;;;;21.60;41.10;;;;;;5073833;28;19955;-45
2022/03/03 06:01:08;;;;;;;;;;;21.60;41.10;;;;;;5072976;28;19978;-43
2022/03/03 06:03:35;;;;;;;;;;;21.50;41.00;;;;;;5073709;28;19928;-45
2022/03/03 06:06:15;;;;;;;;;;;21.60;41.10;;;;;;5073159;28;20257;-46
2022/03/03 06:08:48;;;;;;;;;;;21.50;41.00;;;;;;5073568;28;20277;-44
2022/03/03 06:11:16;;;;;;;;;;;21.60;41.10;;;;;;5055829;28;20399;-45
2022/03/03 06:13:46;;;;;;;;;;;21.50;41.00;;;;;;5073871;28;20360;-45
2022/03/03 06:16:18;;;;;;;;;;;21.60;41.10;;;;;;5072826;28;19924;-45
2022/03/03 06:18:47;;;;;;;;;;;21.50;41.00;;;;;;5073449;28;19925;-47
2022/03/03 06:21:15;;;;;;;;;;;21.50;41.00;;;;;;5072876;28;19924;-48
2022/03/03 06:23:43;;;;;;;;;;;21.60;41.10;;;;;;5073512;28;19929;-46
2022/03/03 06:26:15;;;;;;;;;;;21.60;41.00;;;;;;5073741;28;19924;-42
2022/03/03 06:28:42;;;;;;;;;;;21.60;41.00;;;;;;5073630;28;20309;-44
2022/03/03 06:31:09;;;;;;;;;;;21.60;41.00;;;;;;5072346;28;19924;-47
2022/03/03 06:33:36;;;;;;;;;;;21.60;41.10;;;;;;5073134;28;19968;-45
2022/03/03 06:36:03;;;;;;;;;;;21.50;40.90;;;;;;5070507;28;19924;-44
2022/03/03 06:38:31;;;;;;;;;;;21.60;41.00;;;;;;5072851;28;19932;-43
2022/03/03 06:41:05;;;;;;;;;;;21.50;40.90;;;;;;5073165;28;19993;-44
2022/03/03 06:43:34;;;;;;;;;;;21.60;41.00;;;;;;5072838;28;19925;-43
2022/03/03 06:46:01;;;;;;;;;;;21.60;41.00;;;;;;5071813;28;19924;-45
2022/03/03 06:48:28;;;;;;;;;;;21.60;40.90;;;;;;5073070;28;19928;-43
2022/03/03 06:50:56;;;;;;;;;;;21.60;41.00;;;;;;5072508;28;19993;-44
2022/03/03 06:53:27;;;;;;;;;;;21.60;40.90;;;;;;5072951;28;19959;-49
2022/03/03 06:56:01;;;;;;;;;;;21.60;40.90;;;;;;5065533;28;20284;-48
2022/03/03 06:58:33;;;;;;;;;;;21.60;41.90;;;;;;5040821;28;19932;-51
2022/03/03 07:01:18;;;;;;;;;;;21.60;42.60;;;;;;5057993;28;19919;-45
2022/03/03 07:03:58;;;;;;;;;;;21.60;43.00;;;;;;5056036;28;20399;-47
2022/03/03 07:06:26;;;;;;;;;;;21.60;43.40;;;;;;5050107;28;20414;-51
2022/03/03 07:12:23;;;;;;;;;;;21.70;43.90;;;;;;5057542;28;19924;-52
2022/03/03 07:21:39;;;;;;;;;;;21.80;45.30;;;;;;5065682;28;19933;-53
2022/03/03 07:24:42;;;;;;;;;;;21.80;45.50;;;;;;5068769;28;19978;-49
2022/03/03 07:27:18;;;;;;;;;;;21.80;45.50;;;;;;5073073;28;20081;-45
2022/03/03 07:29:58;;;;;;;;;;;21.80;45.70;;;;;;5064191;28;20390;-45
2022/03/03 07:32:41;;;;;;;;;;;21.90;45.80;;;;;;5065478;28;20156;-49
2022/03/03 07:35:12;;;;;;;;;;;21.90;45.80;;;;;;5061411;28;20020;-46
2022/03/03 07:37:49;;;;;;;;;;;22.00;46.10;;;;;;5060279;28;20282;-51
2022/03/03 07:40:16;;;;;;;;;;;22.00;46.20;;;;;;5056620;28;20441;-51
2022/03/03 07:43:06;;;;;;;;;;;22.00;46.40;;;;;;5074558;28;19924;-51
2022/03/03 07:45:36;;;;;;;;;;;22.00;46.60;;;;;;5057327;28;19931;-49
2022/03/03 07:48:06;;;;;;;;;;;22.00;46.70;;;;;;5073776;28;20355;-51
2022/03/03 07:50:51;;;;;;;;;;;22.10;47.00;;;;;;5063496;28;20023;-48
2022/03/03 07:53:36;;;;;;;;;;;22.10;46.90;;;;;;5068563;28;20390;-56
2022/03/03 07:59:32;;;;;;;;;;;22.20;47.40;;;;;;5063175;28;19920;-50
2022/03/03 08:02:22;;;;;;;;;;;22.20;47.80;;;;;;5068305;28;20024;-49
2022/03/03 08:05:13;;;;;;;;;;;22.20;47.90;;;;;;5070503;28;20429;-47
2022/03/03 08:08:01;;;;;;;;;;;22.30;48.10;;;;;;5070968;28;19935;-50
2022/03/03 08:10:32;;;;;;;;;;;22.30;48.10;;;;;;5065300;28;19924;-50
2022/03/03 08:13:00;;;;;;;;;;;22.30;48.20;;;;;;5078597;28;19928;-49
2022/03/03 08:15:27;;;;;;;;;;;22.40;48.30;;;;;;5074104;28;19932;-50
2022/03/03 08:17:54;;;;;;;;;;;22.40;48.50;;;;;;5085490;28;19924;-55
2022/03/03 08:20:22;;;;;;;;;;;22.40;48.50;;;;;;5081748;28;20337;-50
2022/03/03 08:22:49;;;;;;;;;;;22.40;48.70;;;;;;5065653;28;19932;-54
2022/03/03 08:25:22;;;;;;;;;;;22.40;48.80;;;;;;5073302;28;19967;-51
2022/03/03 08:32:00;;;;;;;;;;;22.50;49.00;;;;;;5062744;28;20017;-54
2022/03/03 08:35:04;;;;;;;;;;;22.50;49.10;;;;;;5062098;28;20403;-44
2022/03/03 08:46:58;;;;;;;;;;;22.60;49.50;;;;;;5060600;28;20003;-53
2022/03/03 08:49:53;;;;;;;;;;;22.60;49.70;;;;;;5068301;28;19932;-50
2022/03/03 08:53:23;;;;;;;;;;;22.60;49.70;;;;;;5049424;28;19980;-46
2022/03/03 08:56:00;;;;;;;;;;;22.60;49.70;;;;;;5060593;28;20292;-56
2022/03/03 08:59:07;;;;;;;;;;;22.70;50.20;;;;;;5057242;28;19933;-49
2022/03/03 09:01:53;;;;;;;;;;;22.60;50.00;;;;;;5064442;28;19924;-50
2022/03/03 09:04:57;;;;;;;;;;;22.70;50.00;;;;;;5075010;28;19923;-50
2022/03/03 09:07:24;;;;;;;;;;;22.70;49.90;;;;;;5065826;28;19976;-52
2022/03/03 09:09:52;;;;;;;;;;;22.80;50.20;;;;;;5070438;28;20015;-50
2022/03/03 09:12:43;;;;;;;;;;;22.80;50.20;;;;;;5070469;28;19928;-46
2022/03/03 09:15:17;;;;;;;;;;;22.80;50.20;;;;;;5081261;28;20014;-51
2022/03/03 09:17:46;;;;;;;;;;;22.80;50.40;;;;;;5072318;28;20374;-45
2022/03/03 09:20:23;;;;;;;;;;;22.80;50.10;;;;;;5061410;28;20368;-46
2022/03/03 09:23:03;;;;;;;;;;;22.80;50.10;;;;;;5065377;28;19932;-48
2022/03/03 09:29:07;;;;;;;;;;;22.80;50.00;;;;;;5068175;28;19923;-46
2022/03/03 09:32:02;;;;;;;;;;;22.80;49.90;;;;;;5062771;28;19981;-47
2022/03/03 09:35:15;;;;;;;;;;;22.80;50.40;;;;;;5060964;28;19936;-49
2022/03/03 09:37:58;;;;;;;;;;;22.80;49.80;;;;;;5060954;28;20986;-46
2022/03/03 09:44:08;;;;;;;;;;;22.80;49.80;;;;;;5067297;28;20131;-55
2022/03/03 09:47:02;;;;;;;;;;;22.90;49.90;;;;;;5064739;28;20564;-52
2022/03/03 09:50:12;;;;;;;;;;;22.90;49.80;;;;;;5049255;28;20326;-49
2022/03/03 09:53:17;;;;;;;;;;;22.90;49.70;;;;;;5064116;28;19934;-51
2022/03/03 09:56:38;;;;;;;;;;;22.90;49.70;;;;;;5068008;28;19920;-48
2022/03/03 09:59:08;;;;;;;;;;;22.90;49.80;;;;;;5057519;28;19924;-49
2022/03/03 10:01:47;;;;;;;;;;;22.80;46.10;;;;;;5059485;28;19928;-44
2022/03/03 10:07:59;;;;;;;;;;;22.50;43.60;;;;;;5057969;28;19940;-53
2022/03/03 10:10:44;;;;;;;;;;;22.40;44.10;;;;;;5061204;28;19932;-58
2022/03/03 10:13:16;;;;;;;;;;;22.20;43.90;;;;;;5063834;28;19928;-55
2022/03/03 10:15:53;;;;;;;;;;;22.10;44.60;;;;;;5078199;28;19950;-54
2022/03/03 10:18:27;;;;;;;;;;;22.00;43.70;;;;;;5068815;28;19932;-52
2022/03/03 10:21:05;;;;;;;;;;;21.80;42.90;;;;;;5070652;28;20449;-45
2022/03/03 10:23:33;;;;;;;;;;;21.70;42.40;;;;;;5075077;28;19936;-50
2022/03/03 10:26:09;;;;;;;;;;;21.70;42.20;;;;;;5071136;28;19924;-54
2022/03/03 10:28:37;;;;;;;;;;;21.70;42.90;;;;;;5067071;28;20407;-48
2022/03/03 10:31:08;;;;;;;;;;;21.60;42.80;;;;;;5067619;28;19978;-44
2022/03/03 10:33:42;;;;;;;;;;;21.50;42.40;;;;;;5062039;28;19925;-46
2022/03/03 10:36:16;;;;;;;;;;;21.50;42.20;;;;;;5077337;28;19971;-47
2022/03/03 10:38:44;;;;;;;;;;;21.50;42.20;;;;;;5072273;28;19932;-47
2022/03/03 10:41:30;;;;;;;;;;;21.50;42.20;;;;;;5067732;28;20090;-48
2022/03/03 10:44:19;;;;;;;;;;;21.50;41.40;;;;;;5054141;28;19937;-44
2022/03/03 10:47:07;;;;;;;;;;;21.40;41.40;;;;;;5063031;28;19932;-48
2022/03/03 10:49:55;;;;;;;;;;;21.40;41.30;;;;;;5069156;28;20383;-48
2022/03/03 10:52:23;;;;;;;;;;;21.40;40.70;;;;;;5064704;28;20031;-49
2022/03/03 10:55:05;;;;;;;;;;;21.30;39.80;;;;;;5065663;28;19939;-53
2022/03/03 10:57:34;;;;;;;;;;;21.40;40.10;;;;;;5072073;28;20418;-53
2022/03/03 11:00:04;;;;;;;;;;;21.30;39.50;;;;;;5074562;28;19928;-56
2022/03/03 11:02:32;;;;;;;;;;;21.20;39.30;;;;;;5068856;28;20024;-49
2022/03/03 11:04:59;;;;;;;;;;;21.20;39.40;;;;;;5069281;28;19928;-49
2022/03/03 11:07:26;;;;;;;;;;;21.20;39.20;;;;;;5053497;28;20395;-47
2022/03/03 11:10:35;;;;;;;;;;;21.10;39.10;;;;;;5069248;28;20005;-51
2022/03/03 11:13:06;;;;;;;;;;;21.10;38.70;;;;;;5049862;28;19924;-53
2022/03/03 11:15:36;;;;;;;;;;;21.10;38.00;;;;;;5070130;28;19925;-47
2022/03/03 11:18:03;;;;;;;;;;;21.10;38.40;;;;;;5059133;28;19928;-42
2022/03/03 11:20:30;;;;;;;;;;;21.10;39.30;;;;;;5071355;28;19924;-42
2022/03/03 11:22:57;;;;;;;;;;;21.10;38.90;;;;;;5070253;28;19928;-44
2022/03/03 11:25:34;;;;;;;;;;;21.10;39.00;;;;;;5076007;28;19925;-42
2022/03/03 11:28:05;;;;;;;;;;;21.10;39.20;;;;;;5076385;28;19925;-44
2022/03/03 11:30:32;;;;;;;;;;;21.00;38.90;;;;;;5076442;28;19963;-48
2022/03/03 11:33:27;;;;;;;;;;;21.10;39.60;;;;;;5075878;28;19970;-44
2022/03/03 11:36:01;;;;;;;;;;;21.00;39.40;;;;;;5075511;28;19971;-44
2022/03/03 11:38:45;;;;;;;;;;;21.00;41.20;;;;;;5074889;28;20270;-54
2022/03/03 11:41:12;;;;;;;;;;;21.00;42.00;;;;;;5074209;28;19994;-46
2022/03/03 11:43:57;;;;;;;;;;;21.10;43.50;;;;;;5057899;28;20284;-52
2022/03/03 11:46:43;;;;;;;;;;;21.20;44.50;;;;;;5074472;28;19932;-46
2022/03/03 11:49:11;;;;;;;;;;;21.30;47.80;;;;;;5064056;28;19924;-51
2022/03/03 11:51:38;;;;;;;;;;;21.30;47.10;;;;;;5074012;28;19925;-49
2022/03/03 11:54:28;;;;;;;;;;;21.40;47.70;;;;;;5074389;28;19924;-46
2022/03/03 11:57:04;;;;;;;;;;;21.50;47.90;;;;;;5069850;28;20301;-40
2022/03/03 11:59:41;;;;;;;;;;;21.60;48.10;;;;;;5070381;28;19967;-45
2022/03/03 12:02:08;;;;;;;;;;;21.70;48.40;;;;;;5074695;28;19987;-45
2022/03/03 12:04:38;;;;;;;;;;;21.80;48.30;;;;;;5074751;28;19925;-48
2022/03/03 12:07:25;;;;;;;;;;;21.90;47.60;;;;;;5076069;28;20297;-45
2022/03/03 12:09:52;;;;;;;;;;;22.00;47.40;;;;;;5074715;28;19925;-49
2022/03/03 12:12:19;;;;;;;;;;;22.00;47.10;;;;;;5075672;28;19924;-46
2022/03/03 12:14:51;;;;;;;;;;;22.10;47.00;;;;;;5076005;28;19928;-45
2022/03/03 12:17:33;;;;;;;;;;;22.10;46.90;;;;;;5074920;28;19940;-46
2022/03/03 12:20:23;;;;;;;;;;;22.20;47.00;;;;;;5075433;28;19928;-44
2022/03/03 12:23:11;;;;;;;;;;;22.20;46.80;;;;;;5075470;28;20035;-44
2022/03/03 12:25:47;;;;;;;;;;;22.30;46.80;;;;;;5074739;28;20457;-45
2022/03/03 12:28:15;;;;;;;;;;;22.40;46.80;;;;;;5075491;28;19925;-43
2022/03/03 12:30:43;;;;;;;;;;;22.40;46.70;;;;;;5075391;28;19925;-53
2022/03/03 12:33:22;;;;;;;;;;;22.50;46.70;;;;;;5074950;28;19924;-48
2022/03/03 12:35:49;;;;;;;;;;;22.50;46.60;;;;;;5075367;28;19924;-49
2022/03/03 12:38:16;;;;;;;;;;;22.50;46.60;;;;;;5075275;28;19968;-47
2022/03/03 12:40:44;;;;;;;;;;;22.60;46.60;;;;;;5074340;28;19970;-44
2022/03/03 12:43:21;;;;;;;;;;;22.60;46.50;;;;;;5057596;28;19967;-53
2022/03/03 12:45:48;;;;;;;;;;;22.60;46.40;;;;;;5075444;28;19928;-52
2022/03/03 12:48:28;;;;;;;;;;;22.70;46.40;;;;;;5074298;28;19924;-50
2022/03/03 12:51:00;;;;;;;;;;;22.70;46.30;;;;;;5074670;28;19972;-43
2022/03/03 12:53:33;;;;;;;;;;;22.70;46.20;;;;;;5075163;28;19928;-47
2022/03/03 12:56:00;;;;;;;;;;;22.80;46.20;;;;;;5056688;28;19928;-51
2022/03/03 12:58:32;;;;;;;;;;;22.80;46.10;;;;;;5075227;28;19925;-48
2022/03/03 13:01:00;;;;;;;;;;;22.80;46.10;;;;;;5074823;28;20404;-49
2022/03/03 13:03:36;;;;;;;;;;;22.80;45.90;;;;;;5074716;28;20027;-44
2022/03/03 13:06:04;;;;;;;;;;;22.80;45.90;;;;;;5075011;28;19924;-46
2022/03/03 13:08:37;;;;;;;;;;;22.90;45.90;;;;;;5074718;28;19951;-43
2022/03/03 13:11:09;;;;;;;;;;;22.90;45.80;;;;;;5074085;28;19972;-46
2022/03/03 13:13:44;;;;;;;;;;;22.90;45.80;;;;;;5074590;28;20031;-48
2022/03/03 13:16:12;;;;;;;;;;;22.90;45.70;;;;;;5074518;28;20304;-48
2022/03/03 13:18:39;;;;;;;;;;;23.00;45.70;;;;;;5065047;28;19925;-45
2022/03/03 13:21:08;;;;;;;;;;;23.00;45.60;;;;;;5055036;28;19924;-43
2022/03/03 13:23:38;;;;;;;;;;;23.00;45.60;;;;;;5053235;28;19931;-45
2022/03/03 13:26:09;;;;;;;;;;;23.00;45.50;;;;;;5069406;28;19970;-45
2022/03/03 13:28:41;;;;;;;;;;;23.00;45.50;;;;;;5074659;28;20288;-46
2022/03/03 13:31:09;;;;;;;;;;;23.00;45.40;;;;;;5074471;28;19928;-44
2022/03/03 13:33:43;;;;;;;;;;;23.00;45.40;;;;;;5066949;28;19932;-47
2022/03/03 13:36:14;;;;;;;;;;;23.00;45.30;;;;;;5054572;28;19924;-45
2022/03/03 13:38:42;;;;;;;;;;;23.10;45.40;;;;;;5053383;28;19964;-45
2022/03/03 13:41:19;;;;;;;;;;;23.10;45.40;;;;;;5068643;28;20019;-43
2022/03/03 13:43:46;;;;;;;;;;;23.10;45.30;;;;;;5074071;28;19954;-47
2022/03/03 13:46:27;;;;;;;;;;;23.10;45.20;;;;;;5074352;28;20003;-48
2022/03/03 13:48:54;;;;;;;;;;;23.10;45.20;;;;;;5073324;28;20030;-44
2022/03/03 13:51:22;;;;;;;;;;;23.10;45.10;;;;;;5074011;28;19950;-44
2022/03/03 13:53:59;;;;;;;;;;;23.10;45.10;;;;;;5074205;28;20248;-44
2022/03/03 13:56:30;;;;;;;;;;;23.10;45.00;;;;;;5073042;28;19971;-46
2022/03/03 13:59:07;;;;;;;;;;;23.20;45.00;;;;;;5073843;28;19929;-47
2022/03/03 14:01:36;;;;;;;;;;;23.20;45.00;;;;;;5073727;28;19924;-47
2022/03/03 14:04:10;;;;;;;;;;;23.20;45.00;;;;;;5073215;28;19924;-45
2022/03/03 14:06:41;;;;;;;;;;;23.20;44.90;;;;;;5073555;28;20384;-46
2022/03/03 14:09:09;;;;;;;;;;;23.20;44.90;;;;;;5073760;28;19929;-43
2022/03/03 14:11:36;;;;;;;;;;;23.20;44.90;;;;;;5055005;28;19924;-43
2022/03/03 14:14:03;;;;;;;;;;;23.20;44.80;;;;;;5073892;28;19968;-44
2022/03/03 14:16:35;;;;;;;;;;;23.20;44.80;;;;;;5073870;28;19975;-43
2022/03/03 14:19:03;;;;;;;;;;;23.20;44.80;;;;;;5072536;28;19951;-44
2022/03/03 14:21:30;;;;;;;;;;;23.20;44.80;;;;;;5073238;28;19924;-45
2022/03/03 14:23:57;;;;;;;;;;;23.20;44.80;;;;;;5073436;28;19928;-43
2022/03/03 14:26:44;;;;;;;;;;;23.20;44.70;;;;;;5072651;28;20431;-45
2022/03/03 14:29:11;;;;;;;;;;;23.20;44.70;;;;;;5074082;28;19964;-45
2022/03/03 14:31:38;;;;;;;;;;;23.20;44.70;;;;;;5073700;28;19929;-46
2022/03/03 14:34:09;;;;;;;;;;;23.20;44.70;;;;;;5072881;28;19947;-46
2022/03/03 14:36:41;;;;;;;;;;;23.20;44.70;;;;;;5073694;28;19928;-44
2022/03/03 14:39:09;;;;;;;;;;;23.20;44.70;;;;;;5073236;28;19924;-45
2022/03/03 14:41:37;;;;;;;;;;;23.20;44.60;;;;;;5072815;28;20291;-45
2022/03/03 14:44:04;;;;;;;;;;;23.20;44.60;;;;;;5073360;28;20434;-46
2022/03/03 14:46:33;;;;;;;;;;;23.20;44.60;;;;;;5073597;28;20299;-43
2022/03/03 14:49:00;;;;;;;;;;;23.20;44.60;;;;;;5072525;28;20015;-48
2022/03/03 14:51:29;;;;;;;;;;;23.20;44.60;;;;;;5073026;28;19970;-44
2022/03/03 14:53:56;;;;;;;;;;;23.20;44.60;;;;;;5073490;28;19924;-45
2022/03/03 14:56:23;;;;;;;;;;;23.20;44.60;;;;;;5072437;28;19970;-44
2022/03/03 14:58:50;;;;;;;;;;;23.20;44.60;;;;;;5073432;28;20034;-46
2022/03/03 15:01:18;;;;;;;;;;;23.20;44.60;;;;;;5073423;28;19932;-46
2022/03/03 15:03:45;;;;;;;;;;;23.20;44.50;;;;;;5073393;28;19931;-46
2022/03/03 15:06:12;;;;;;;;;;;23.20;44.50;;;;;;5072702;28;19971;-47
2022/03/03 15:08:39;;;;;;;;;;;23.20;44.50;;;;;;5073341;28;20333;-44
2022/03/03 15:11:06;;;;;;;;;;;23.20;44.50;;;;;;5072340;28;19978;-43
2022/03/03 15:13:33;;;;;;;;;;;23.20;44.50;;;;;;5073255;28;19924;-46
2022/03/03 15:16:00;;;;;;;;;;;23.20;44.50;;;;;;5055550;28;19964;-45
2022/03/03 15:18:27;;;;;;;;;;;23.20;44.50;;;;;;5073218;28;20317;-44
2022/03/03 15:20:55;;;;;;;;;;;23.20;44.40;;;;;;5054153;28;19971;-47